sensor_id;sensor_type;location;lat;lon;timestamp;P1;durP1;ratioP1;P2;durP2;ratioP2
70866;SDS011;58487;53.474;49.470;2023-04-25T00:00:13;16.38;;;4.63;;
70866;SDS011;58487;53.474;49.470;2023-04-25T00:02:39;12.38;;;4.30;;
70866;SDS011;58487;53.474;49.470;2023-04-25T00:05:06;13.80;;;4.68;;
70866;SDS011;58487;53.474;49.470;2023-04-25T00:07:33;12.05;;;4.63;;
70866;SDS011;58487;53.474;49.470;2023-04-25T00:10:00;11.63;;;4.70;;
70866;SDS011;58487;53.474;49.470;2023-04-25T00:12:26;11.68;;;5.00;;
70866;SDS011;58487;53.474;49.470;2023-04-25T00:14:54;12.00;;;4.93;;
70866;SDS011;58487;53.474;49.470;2023-04-25T00:17:22;12.70;;;5.20;;
70866;SDS011;58487;53.474;49.470;2023-04-25T00:19:52;11.80;;;4.85;;
70866;SDS011;58487;53.474;49.470;2023-04-25T00:22:18;14.37;;;6.00;;
70866;SDS011;58487;53.474;49.470;2023-04-25T00:24:44;13.35;;;5.25;;
70866;SDS011;58487;53.474;49.470;2023-04-25T00:27:10;11.50;;;5.25;;
70866;SDS011;58487;53.474;49.470;2023-04-25T00:29:36;12.10;;;5.25;;
70866;SDS011;58487;53.474;49.470;2023-04-25T00:32:02;10.05;;;5.00;;
70866;SDS011;58487;53.474;49.470;2023-04-25T00:34:28;12.80;;;6.00;;
70866;SDS011;58487;53.474;49.470;2023-04-25T00:36:54;11.93;;;5.25;;
70866;SDS011;58487;53.474;49.470;2023-04-25T00:39:20;12.40;;;5.28;;
70866;SDS011;58487;53.474;49.470;2023-04-25T00:41:46;12.73;;;5.60;;
70866;SDS011;58487;53.474;49.470;2023-04-25T00:44:13;14.77;;;6.10;;
70866;SDS011;58487;53.474;49.470;2023-04-25T00:46:42;11.97;;;6.20;;
70866;SDS011;58487;53.474;49.470;2023-04-25T00:49:12;12.77;;;6.78;;
70866;SDS011;58487;53.474;49.470;2023-04-25T00:51:41;12.80;;;6.40;;
70866;SDS011;58487;53.474;49.470;2023-04-25T00:54:07;14.40;;;6.72;;
70866;SDS011;58487;53.474;49.470;2023-04-25T00:56:33;13.35;;;6.18;;
70866;SDS011;58487;53.474;49.470;2023-04-25T00:59:00;11.40;;;5.93;;
70866;SDS011;58487;53.474;49.470;2023-04-25T01:01:26;13.93;;;5.70;;
70866;SDS011;58487;53.474;49.470;2023-04-25T01:03:53;11.93;;;5.60;;
70866;SDS011;58487;53.474;49.470;2023-04-25T01:06:19;14.75;;;5.63;;
70866;SDS011;58487;53.474;49.470;2023-04-25T01:08:46;13.30;;;6.07;;
70866;SDS011;58487;53.474;49.470;2023-04-25T01:11:12;12.63;;;5.33;;
70866;SDS011;58487;53.474;49.470;2023-04-25T01:13:38;15.80;;;5.95;;
70866;SDS011;58487;53.474;49.470;2023-04-25T01:16:04;14.88;;;5.50;;
70866;SDS011;58487;53.474;49.470;2023-04-25T01:18:31;14.40;;;6.10;;
70866;SDS011;58487;53.474;49.470;2023-04-25T01:21:02;12.90;;;5.47;;
70866;SDS011;58487;53.474;49.470;2023-04-25T01:23:34;12.63;;;4.77;;
70866;SDS011;58487;53.474;49.470;2023-04-25T01:26:00;12.77;;;5.10;;
70866;SDS011;58487;53.474;49.470;2023-04-25T01:28:27;10.55;;;5.38;;
70866;SDS011;58487;53.474;49.470;2023-04-25T01:30:54;14.75;;;5.10;;
70866;SDS011;58487;53.474;49.470;2023-04-25T01:33:21;12.32;;;4.60;;
70866;SDS011;58487;53.474;49.470;2023-04-25T01:35:48;11.80;;;4.30;;
70866;SDS011;58487;53.474;49.470;2023-04-25T01:38:14;15.98;;;4.60;;
70866;SDS011;58487;53.474;49.470;2023-04-25T01:40:40;13.95;;;4.97;;
70866;SDS011;58487;53.474;49.470;2023-04-25T01:43:07;15.45;;;5.43;;
70866;SDS011;58487;53.474;49.470;2023-04-25T01:45:37;13.35;;;4.82;;
70866;SDS011;58487;53.474;49.470;2023-04-25T01:48:10;11.57;;;4.70;;
70866;SDS011;58487;53.474;49.470;2023-04-25T01:50:38;14.32;;;4.80;;
70866;SDS011;58487;53.474;49.470;2023-04-25T01:53:05;10.75;;;4.85;;
70866;SDS011;58487;53.474;49.470;2023-04-25T01:55:32;9.98;;;4.55;;
70866;SDS011;58487;53.474;49.470;2023-04-25T01:57:58;11.48;;;4.40;;
70866;SDS011;58487;53.474;49.470;2023-04-25T02:00:25;11.87;;;4.47;;
70866;SDS011;58487;53.474;49.470;2023-04-25T02:02:51;14.45;;;4.30;;
70866;SDS011;58487;53.474;49.470;2023-04-25T02:05:19;10.88;;;4.53;;
70866;SDS011;58487;53.474;49.470;2023-04-25T02:07:46;13.35;;;4.60;;
70866;SDS011;58487;53.474;49.470;2023-04-25T02:10:13;15.85;;;4.60;;
70866;SDS011;58487;53.474;49.470;2023-04-25T02:12:39;11.57;;;4.87;;
70866;SDS011;58487;53.474;49.470;2023-04-25T02:15:05;12.07;;;5.03;;
70866;SDS011;58487;53.474;49.470;2023-04-25T02:17:32;8.80;;;4.18;;
70866;SDS011;58487;53.474;49.470;2023-04-25T02:19:58;14.07;;;4.57;;
70866;SDS011;58487;53.474;49.470;2023-04-25T02:22:24;15.95;;;4.68;;
70866;SDS011;58487;53.474;49.470;2023-04-25T02:24:50;19.47;;;4.77;;
70866;SDS011;58487;53.474;49.470;2023-04-25T02:27:16;12.45;;;4.32;;
70866;SDS011;58487;53.474;49.470;2023-04-25T02:29:42;15.00;;;4.50;;
70866;SDS011;58487;53.474;49.470;2023-04-25T02:32:08;16.55;;;7.95;;
70866;SDS011;58487;53.474;49.470;2023-04-25T02:34:34;14.02;;;4.35;;
70866;SDS011;58487;53.474;49.470;2023-04-25T02:37:00;11.33;;;4.67;;
70866;SDS011;58487;53.474;49.470;2023-04-25T02:39:26;13.57;;;4.95;;
70866;SDS011;58487;53.474;49.470;2023-04-25T02:41:52;9.27;;;4.30;;
70866;SDS011;58487;53.474;49.470;2023-04-25T02:44:19;13.75;;;4.35;;
70866;SDS011;58487;53.474;49.470;2023-04-25T02:46:45;9.23;;;4.60;;
70866;SDS011;58487;53.474;49.470;2023-04-25T02:49:11;11.67;;;5.10;;
70866;SDS011;58487;53.474;49.470;2023-04-25T02:51:37;10.32;;;4.10;;
70866;SDS011;58487;53.474;49.470;2023-04-25T02:54:03;11.40;;;4.70;;
70866;SDS011;58487;53.474;49.470;2023-04-25T02:56:29;12.98;;;4.72;;
70866;SDS011;58487;53.474;49.470;2023-04-25T02:58:55;12.55;;;5.07;;
70866;SDS011;58487;53.474;49.470;2023-04-25T03:01:22;16.73;;;4.60;;
70866;SDS011;58487;53.474;49.470;2023-04-25T03:03:48;17.45;;;5.10;;
70866;SDS011;58487;53.474;49.470;2023-04-25T03:06:14;11.60;;;4.93;;
70866;SDS011;58487;53.474;49.470;2023-04-25T03:08:41;17.00;;;5.35;;
70866;SDS011;58487;53.474;49.470;2023-04-25T03:11:07;16.33;;;5.80;;
70866;SDS011;58487;53.474;49.470;2023-04-25T03:13:33;10.97;;;5.33;;
70866;SDS011;58487;53.474;49.470;2023-04-25T03:15:59;15.70;;;5.68;;
70866;SDS011;58487;53.474;49.470;2023-04-25T03:18:25;10.75;;;5.20;;
70866;SDS011;58487;53.474;49.470;2023-04-25T03:20:51;14.77;;;5.55;;
70866;SDS011;58487;53.474;49.470;2023-04-25T03:23:18;13.23;;;5.32;;
70866;SDS011;58487;53.474;49.470;2023-04-25T03:25:44;14.73;;;5.37;;
70866;SDS011;58487;53.474;49.470;2023-04-25T03:28:10;16.20;;;5.25;;
70866;SDS011;58487;53.474;49.470;2023-04-25T03:30:36;11.07;;;5.13;;
70866;SDS011;58487;53.474;49.470;2023-04-25T03:33:02;13.75;;;5.50;;
70866;SDS011;58487;53.474;49.470;2023-04-25T03:35:28;11.82;;;5.30;;
70866;SDS011;58487;53.474;49.470;2023-04-25T03:37:54;14.23;;;5.80;;
70866;SDS011;58487;53.474;49.470;2023-04-25T03:40:20;16.33;;;6.60;;
70866;SDS011;58487;53.474;49.470;2023-04-25T03:42:46;11.85;;;5.72;;
70866;SDS011;58487;53.474;49.470;2023-04-25T03:45:12;18.70;;;5.95;;
70866;SDS011;58487;53.474;49.470;2023-04-25T03:47:38;13.32;;;5.95;;
70866;SDS011;58487;53.474;49.470;2023-04-25T03:50:05;14.27;;;5.50;;
70866;SDS011;58487;53.474;49.470;2023-04-25T03:52:31;12.38;;;5.28;;
70866;SDS011;58487;53.474;49.470;2023-04-25T03:54:58;14.98;;;5.50;;
70866;SDS011;58487;53.474;49.470;2023-04-25T03:57:24;12.32;;;5.75;;
70866;SDS011;58487;53.474;49.470;2023-04-25T03:59:50;16.65;;;6.50;;
70866;SDS011;58487;53.474;49.470;2023-04-25T04:02:17;12.63;;;5.70;;
70866;SDS011;58487;53.474;49.470;2023-04-25T04:04:43;13.23;;;5.68;;
70866;SDS011;58487;53.474;49.470;2023-04-25T04:07:10;14.02;;;5.15;;
70866;SDS011;58487;53.474;49.470;2023-04-25T04:09:36;14.98;;;6.03;;
70866;SDS011;58487;53.474;49.470;2023-04-25T04:12:02;11.57;;;5.38;;
70866;SDS011;58487;53.474;49.470;2023-04-25T04:14:28;11.27;;;5.40;;
70866;SDS011;58487;53.474;49.470;2023-04-25T04:16:55;16.77;;;5.88;;
70866;SDS011;58487;53.474;49.470;2023-04-25T04:19:21;13.63;;;5.38;;
70866;SDS011;58487;53.474;49.470;2023-04-25T04:21:47;16.48;;;6.05;;
70866;SDS011;58487;53.474;49.470;2023-04-25T04:24:13;15.85;;;5.72;;
70866;SDS011;58487;53.474;49.470;2023-04-25T04:26:42;18.57;;;6.13;;
70866;SDS011;58487;53.474;49.470;2023-04-25T04:29:10;18.65;;;6.20;;
70866;SDS011;58487;53.474;49.470;2023-04-25T04:31:37;15.45;;;5.90;;
70866;SDS011;58487;53.474;49.470;2023-04-25T04:34:03;16.48;;;5.95;;
70866;SDS011;58487;53.474;49.470;2023-04-25T04:36:30;13.73;;;5.88;;
70866;SDS011;58487;53.474;49.470;2023-04-25T04:38:56;16.30;;;5.80;;
70866;SDS011;58487;53.474;49.470;2023-04-25T04:41:22;12.40;;;5.47;;
70866;SDS011;58487;53.474;49.470;2023-04-25T04:43:49;16.23;;;6.00;;
70866;SDS011;58487;53.474;49.470;2023-04-25T04:46:15;13.13;;;5.38;;
70866;SDS011;58487;53.474;49.470;2023-04-25T04:48:41;12.70;;;5.75;;
70866;SDS011;58487;53.474;49.470;2023-04-25T04:51:08;14.43;;;5.70;;
70866;SDS011;58487;53.474;49.470;2023-04-25T04:53:36;17.48;;;6.13;;
70866;SDS011;58487;53.474;49.470;2023-04-25T04:56:02;14.15;;;6.28;;
70866;SDS011;58487;53.474;49.470;2023-04-25T04:58:28;13.13;;;6.03;;
70866;SDS011;58487;53.474;49.470;2023-04-25T05:00:55;15.70;;;6.30;;
70866;SDS011;58487;53.474;49.470;2023-04-25T05:03:21;14.63;;;7.17;;
70866;SDS011;58487;53.474;49.470;2023-04-25T05:05:47;17.33;;;6.30;;
70866;SDS011;58487;53.474;49.470;2023-04-25T05:08:13;13.40;;;6.25;;
70866;SDS011;58487;53.474;49.470;2023-04-25T05:10:39;17.83;;;6.47;;
70866;SDS011;58487;53.474;49.470;2023-04-25T05:13:05;15.25;;;6.30;;
70866;SDS011;58487;53.474;49.470;2023-04-25T05:15:31;15.50;;;6.30;;
70866;SDS011;58487;53.474;49.470;2023-04-25T05:17:57;15.48;;;6.20;;
70866;SDS011;58487;53.474;49.470;2023-04-25T05:20:24;14.80;;;5.93;;
70866;SDS011;58487;53.474;49.470;2023-04-25T05:22:50;12.70;;;6.85;;
70866;SDS011;58487;53.474;49.470;2023-04-25T05:25:16;13.50;;;5.90;;
70866;SDS011;58487;53.474;49.470;2023-04-25T05:27:42;14.63;;;5.67;;
70866;SDS011;58487;53.474;49.470;2023-04-25T05:30:08;13.18;;;5.95;;
70866;SDS011;58487;53.474;49.470;2023-04-25T05:32:35;19.92;;;6.25;;
70866;SDS011;58487;53.474;49.470;2023-04-25T05:35:01;15.90;;;6.05;;
70866;SDS011;58487;53.474;49.470;2023-04-25T05:37:28;15.40;;;6.00;;
70866;SDS011;58487;53.474;49.470;2023-04-25T05:39:56;14.10;;;5.97;;
70866;SDS011;58487;53.474;49.470;2023-04-25T05:42:22;18.50;;;6.78;;
70866;SDS011;58487;53.474;49.470;2023-04-25T05:44:48;16.17;;;6.72;;
70866;SDS011;58487;53.474;49.470;2023-04-25T05:47:14;15.73;;;6.93;;
70866;SDS011;58487;53.474;49.470;2023-04-25T05:49:40;16.50;;;6.78;;
70866;SDS011;58487;53.474;49.470;2023-04-25T05:52:06;17.37;;;7.00;;
70866;SDS011;58487;53.474;49.470;2023-04-25T05:54:32;23.17;;;6.40;;
70866;SDS011;58487;53.474;49.470;2023-04-25T05:56:58;17.35;;;7.40;;
70866;SDS011;58487;53.474;49.470;2023-04-25T05:59:25;26.70;;;7.82;;
70866;SDS011;58487;53.474;49.470;2023-04-25T06:01:51;19.27;;;6.60;;
70866;SDS011;58487;53.474;49.470;2023-04-25T06:04:17;15.37;;;6.10;;
70866;SDS011;58487;53.474;49.470;2023-04-25T06:06:43;20.75;;;6.60;;
70866;SDS011;58487;53.474;49.470;2023-04-25T06:09:09;18.80;;;6.25;;
70866;SDS011;58487;53.474;49.470;2023-04-25T06:11:35;20.25;;;6.70;;
70866;SDS011;58487;53.474;49.470;2023-04-25T06:14:01;19.40;;;7.05;;
70866;SDS011;58487;53.474;49.470;2023-04-25T06:16:27;14.73;;;6.50;;
70866;SDS011;58487;53.474;49.470;2023-04-25T06:18:53;18.33;;;5.88;;
70866;SDS011;58487;53.474;49.470;2023-04-25T06:21:19;18.15;;;6.90;;
70866;SDS011;58487;53.474;49.470;2023-04-25T06:23:45;19.02;;;5.82;;
70866;SDS011;58487;53.474;49.470;2023-04-25T06:26:11;14.15;;;6.60;;
70866;SDS011;58487;53.474;49.470;2023-04-25T06:28:37;17.60;;;6.50;;
70866;SDS011;58487;53.474;49.470;2023-04-25T06:31:03;15.65;;;6.22;;
70866;SDS011;58487;53.474;49.470;2023-04-25T06:33:30;18.98;;;6.18;;
70866;SDS011;58487;53.474;49.470;2023-04-25T06:35:56;17.20;;;6.53;;
70866;SDS011;58487;53.474;49.470;2023-04-25T06:38:22;19.33;;;6.65;;
70866;SDS011;58487;53.474;49.470;2023-04-25T06:40:48;17.67;;;6.20;;
70866;SDS011;58487;53.474;49.470;2023-04-25T06:43:14;19.23;;;6.15;;
70866;SDS011;58487;53.474;49.470;2023-04-25T06:45:40;17.90;;;6.28;;
70866;SDS011;58487;53.474;49.470;2023-04-25T06:48:06;16.73;;;6.63;;
70866;SDS011;58487;53.474;49.470;2023-04-25T06:50:33;16.33;;;6.95;;
70866;SDS011;58487;53.474;49.470;2023-04-25T06:52:59;16.93;;;7.20;;
70866;SDS011;58487;53.474;49.470;2023-04-25T06:55:27;17.13;;;7.57;;
70866;SDS011;58487;53.474;49.470;2023-04-25T06:57:53;16.42;;;7.20;;
70866;SDS011;58487;53.474;49.470;2023-04-25T07:00:19;18.60;;;6.68;;
70866;SDS011;58487;53.474;49.470;2023-04-25T07:02:45;18.05;;;7.40;;
70866;SDS011;58487;53.474;49.470;2023-04-25T07:05:11;16.97;;;7.10;;
70866;SDS011;58487;53.474;49.470;2023-04-25T07:07:37;14.27;;;6.13;;
70866;SDS011;58487;53.474;49.470;2023-04-25T07:10:04;16.33;;;6.88;;
70866;SDS011;58487;53.474;49.470;2023-04-25T07:12:30;23.05;;;7.20;;
70866;SDS011;58487;53.474;49.470;2023-04-25T07:14:56;17.58;;;6.20;;
70866;SDS011;58487;53.474;49.470;2023-04-25T07:17:22;12.90;;;6.57;;
70866;SDS011;58487;53.474;49.470;2023-04-25T07:19:48;13.82;;;6.15;;
70866;SDS011;58487;53.474;49.470;2023-04-25T07:22:15;12.55;;;5.93;;
70866;SDS011;58487;53.474;49.470;2023-04-25T07:24:41;11.18;;;5.25;;
70866;SDS011;58487;53.474;49.470;2023-04-25T07:27:07;10.48;;;4.93;;
70866;SDS011;58487;53.474;49.470;2023-04-25T07:29:33;12.97;;;5.13;;
70866;SDS011;58487;53.474;49.470;2023-04-25T07:32:02;13.48;;;4.80;;
70866;SDS011;58487;53.474;49.470;2023-04-25T07:34:28;10.63;;;4.78;;
70866;SDS011;58487;53.474;49.470;2023-04-25T07:36:55;11.93;;;4.43;;
70866;SDS011;58487;53.474;49.470;2023-04-25T07:39:21;13.98;;;5.00;;
70866;SDS011;58487;53.474;49.470;2023-04-25T07:41:48;11.13;;;4.67;;
70866;SDS011;58487;53.474;49.470;2023-04-25T07:44:14;13.07;;;5.03;;
70866;SDS011;58487;53.474;49.470;2023-04-25T07:46:40;12.68;;;4.68;;
70866;SDS011;58487;53.474;49.470;2023-04-25T07:49:07;11.25;;;4.30;;
70866;SDS011;58487;53.474;49.470;2023-04-25T07:51:33;11.90;;;4.63;;
70866;SDS011;58487;53.474;49.470;2023-04-25T07:53:59;11.00;;;4.33;;
70866;SDS011;58487;53.474;49.470;2023-04-25T07:56:26;10.52;;;4.50;;
70866;SDS011;58487;53.474;49.470;2023-04-25T07:58:52;11.40;;;3.78;;
70866;SDS011;58487;53.474;49.470;2023-04-25T08:01:18;8.40;;;3.63;;
70866;SDS011;58487;53.474;49.470;2023-04-25T08:03:47;10.57;;;4.15;;
70866;SDS011;58487;53.474;49.470;2023-04-25T08:06:13;9.93;;;4.17;;
70866;SDS011;58487;53.474;49.470;2023-04-25T08:08:39;12.65;;;4.05;;
70866;SDS011;58487;53.474;49.470;2023-04-25T08:11:06;8.32;;;4.35;;
70866;SDS011;58487;53.474;49.470;2023-04-25T08:13:32;11.73;;;4.25;;
70866;SDS011;58487;53.474;49.470;2023-04-25T08:15:58;8.60;;;3.58;;
70866;SDS011;58487;53.474;49.470;2023-04-25T08:18:25;8.47;;;3.70;;
70866;SDS011;58487;53.474;49.470;2023-04-25T08:20:51;8.43;;;3.50;;
70866;SDS011;58487;53.474;49.470;2023-04-25T08:23:17;11.77;;;3.72;;
70866;SDS011;58487;53.474;49.470;2023-04-25T08:25:43;10.35;;;4.32;;
70866;SDS011;58487;53.474;49.470;2023-04-25T08:28:09;18.02;;;6.82;;
70866;SDS011;58487;53.474;49.470;2023-04-25T08:30:36;11.80;;;4.27;;
70866;SDS011;58487;53.474;49.470;2023-04-25T08:33:02;13.82;;;5.00;;
70866;SDS011;58487;53.474;49.470;2023-04-25T08:35:28;10.52;;;3.72;;
70866;SDS011;58487;53.474;49.470;2023-04-25T08:37:54;9.52;;;3.90;;
70866;SDS011;58487;53.474;49.470;2023-04-25T08:40:22;10.13;;;3.50;;
70866;SDS011;58487;53.474;49.470;2023-04-25T08:42:54;10.23;;;4.47;;
70866;SDS011;58487;53.474;49.470;2023-04-25T08:45:23;13.40;;;4.57;;
70866;SDS011;58487;53.474;49.470;2023-04-25T08:47:51;12.15;;;5.10;;
70866;SDS011;58487;53.474;49.470;2023-04-25T08:50:18;12.10;;;4.20;;
70866;SDS011;58487;53.474;49.470;2023-04-25T08:52:47;17.65;;;5.18;;
70866;SDS011;58487;53.474;49.470;2023-04-25T08:55:18;12.00;;;4.70;;
70866;SDS011;58487;53.474;49.470;2023-04-25T08:57:44;7.97;;;4.07;;
70866;SDS011;58487;53.474;49.470;2023-04-25T09:00:11;9.60;;;4.18;;
70866;SDS011;58487;53.474;49.470;2023-04-25T09:02:42;10.15;;;4.18;;
70866;SDS011;58487;53.474;49.470;2023-04-25T09:05:09;9.43;;;4.13;;
70866;SDS011;58487;53.474;49.470;2023-04-25T09:07:37;10.03;;;3.90;;
70866;SDS011;58487;53.474;49.470;2023-04-25T09:10:07;10.35;;;4.00;;
70866;SDS011;58487;53.474;49.470;2023-04-25T09:12:33;9.18;;;3.78;;
70866;SDS011;58487;53.474;49.470;2023-04-25T09:15:10;10.60;;;4.45;;
70866;SDS011;58487;53.474;49.470;2023-04-25T09:17:41;12.38;;;4.50;;
70866;SDS011;58487;53.474;49.470;2023-04-25T09:20:11;10.77;;;4.10;;
70866;SDS011;58487;53.474;49.470;2023-04-25T09:22:38;10.10;;;4.25;;
70866;SDS011;58487;53.474;49.470;2023-04-25T09:25:11;13.98;;;4.20;;
70866;SDS011;58487;53.474;49.470;2023-04-25T09:27:48;18.63;;;6.82;;
70866;SDS011;58487;53.474;49.470;2023-04-25T09:30:16;8.52;;;4.07;;
70866;SDS011;58487;53.474;49.470;2023-04-25T09:32:43;12.37;;;4.80;;
70866;SDS011;58487;53.474;49.470;2023-04-25T09:35:10;6.75;;;3.40;;
70866;SDS011;58487;53.474;49.470;2023-04-25T09:37:37;8.32;;;3.33;;
70866;SDS011;58487;53.474;49.470;2023-04-25T09:40:06;13.30;;;4.43;;
70866;SDS011;58487;53.474;49.470;2023-04-25T09:42:33;11.07;;;3.78;;
70866;SDS011;58487;53.474;49.470;2023-04-25T09:45:00;9.13;;;3.50;;
70866;SDS011;58487;53.474;49.470;2023-04-25T09:47:27;7.60;;;3.20;;
70866;SDS011;58487;53.474;49.470;2023-04-25T09:49:54;8.50;;;3.10;;
70866;SDS011;58487;53.474;49.470;2023-04-25T09:52:21;10.20;;;3.05;;
70866;SDS011;58487;53.474;49.470;2023-04-25T09:54:49;9.18;;;3.20;;
70866;SDS011;58487;53.474;49.470;2023-04-25T09:57:17;8.73;;;2.97;;
70866;SDS011;58487;53.474;49.470;2023-04-25T09:59:54;9.90;;;3.30;;
70866;SDS011;58487;53.474;49.470;2023-04-25T10:02:22;9.82;;;3.15;;
70866;SDS011;58487;53.474;49.470;2023-04-25T10:04:50;11.65;;;3.30;;
70866;SDS011;58487;53.474;49.470;2023-04-25T10:07:18;12.10;;;3.45;;
70866;SDS011;58487;53.474;49.470;2023-04-25T10:09:49;7.47;;;3.27;;
70866;SDS011;58487;53.474;49.470;2023-04-25T10:12:21;9.07;;;3.25;;
70866;SDS011;58487;53.474;49.470;2023-04-25T10:14:48;10.38;;;3.58;;
70866;SDS011;58487;53.474;49.470;2023-04-25T10:17:14;11.18;;;3.80;;
70866;SDS011;58487;53.474;49.470;2023-04-25T10:19:40;10.75;;;3.63;;
70866;SDS011;58487;53.474;49.470;2023-04-25T10:22:08;8.53;;;3.60;;
70866;SDS011;58487;53.474;49.470;2023-04-25T10:24:40;11.00;;;3.47;;
70866;SDS011;58487;53.474;49.470;2023-04-25T10:27:07;7.30;;;3.00;;
70866;SDS011;58487;53.474;49.470;2023-04-25T10:29:34;7.50;;;3.67;;
70866;SDS011;58487;53.474;49.470;2023-04-25T10:32:01;8.80;;;3.40;;
70866;SDS011;58487;53.474;49.470;2023-04-25T10:34:37;7.90;;;3.30;;
70866;SDS011;58487;53.474;49.470;2023-04-25T10:37:09;9.43;;;3.40;;
70866;SDS011;58487;53.474;49.470;2023-04-25T10:39:38;9.13;;;3.50;;
70866;SDS011;58487;53.474;49.470;2023-04-25T10:42:06;11.13;;;4.18;;
70866;SDS011;58487;53.474;49.470;2023-04-25T10:44:36;15.15;;;3.75;;
70866;SDS011;58487;53.474;49.470;2023-04-25T10:47:07;7.33;;;3.53;;
70866;SDS011;58487;53.474;49.470;2023-04-25T10:49:35;8.95;;;3.65;;
70866;SDS011;58487;53.474;49.470;2023-04-25T10:52:15;7.93;;;3.40;;
70866;SDS011;58487;53.474;49.470;2023-04-25T10:54:54;8.90;;;3.40;;
70866;SDS011;58487;53.474;49.470;2023-04-25T10:57:32;9.63;;;3.53;;
70866;SDS011;58487;53.474;49.470;2023-04-25T11:02:44;11.23;;;3.50;;
70866;SDS011;58487;53.474;49.470;2023-04-25T11:05:29;9.45;;;3.83;;
70866;SDS011;58487;53.474;49.470;2023-04-25T11:07:58;10.18;;;3.53;;
70866;SDS011;58487;53.474;49.470;2023-04-25T11:10:26;7.03;;;3.20;;
70866;SDS011;58487;53.474;49.470;2023-04-25T11:12:56;8.63;;;3.90;;
70866;SDS011;58487;53.474;49.470;2023-04-25T11:15:24;12.23;;;4.07;;
70866;SDS011;58487;53.474;49.470;2023-04-25T11:17:51;6.88;;;3.70;;
70866;SDS011;58487;53.474;49.470;2023-04-25T11:20:18;8.45;;;3.85;;
70866;SDS011;58487;53.474;49.470;2023-04-25T11:22:45;9.85;;;3.40;;
70866;SDS011;58487;53.474;49.470;2023-04-25T11:25:12;6.97;;;3.70;;
70866;SDS011;58487;53.474;49.470;2023-04-25T11:27:50;8.75;;;3.63;;
70866;SDS011;58487;53.474;49.470;2023-04-25T11:30:24;6.25;;;3.30;;
70866;SDS011;58487;53.474;49.470;2023-04-25T11:32:51;8.73;;;3.30;;
70866;SDS011;58487;53.474;49.470;2023-04-25T11:35:18;11.00;;;4.03;;
70866;SDS011;58487;53.474;49.470;2023-04-25T11:37:45;9.00;;;3.80;;
70866;SDS011;58487;53.474;49.470;2023-04-25T11:40:12;6.93;;;3.60;;
70866;SDS011;58487;53.474;49.470;2023-04-25T11:42:39;10.77;;;3.30;;
70866;SDS011;58487;53.474;49.470;2023-04-25T11:45:09;10.63;;;3.45;;
70866;SDS011;58487;53.474;49.470;2023-04-25T11:47:36;9.93;;;3.97;;
70866;SDS011;58487;53.474;49.470;2023-04-25T11:50:03;9.63;;;3.93;;
70866;SDS011;58487;53.474;49.470;2023-04-25T11:52:37;11.63;;;3.38;;
70866;SDS011;58487;53.474;49.470;2023-04-25T11:55:10;8.75;;;3.60;;
70866;SDS011;58487;53.474;49.470;2023-04-25T11:57:39;12.95;;;4.10;;
70866;SDS011;58487;53.474;49.470;2023-04-25T12:00:10;7.70;;;3.67;;
70866;SDS011;58487;53.474;49.470;2023-04-25T12:02:43;11.83;;;4.07;;
70866;SDS011;58487;53.474;49.470;2023-04-25T12:05:11;13.43;;;4.20;;
70866;SDS011;58487;53.474;49.470;2023-04-25T12:07:38;8.90;;;4.05;;
70866;SDS011;58487;53.474;49.470;2023-04-25T12:10:04;10.52;;;4.53;;
70866;SDS011;58487;53.474;49.470;2023-04-25T12:12:33;9.82;;;4.85;;
70866;SDS011;58487;53.474;49.470;2023-04-25T12:17:45;8.65;;;4.75;;
70866;SDS011;58487;53.474;49.470;2023-04-25T12:20:15;13.45;;;4.55;;
70866;SDS011;58487;53.474;49.470;2023-04-25T12:22:44;10.88;;;4.97;;
70866;SDS011;58487;53.474;49.470;2023-04-25T12:25:12;10.25;;;5.18;;
70866;SDS011;58487;53.474;49.470;2023-04-25T12:33:23;10.63;;;4.15;;
70866;SDS011;58487;53.474;49.470;2023-04-25T12:35:50;8.05;;;4.30;;
70866;SDS011;58487;53.474;49.470;2023-04-25T12:38:29;12.00;;;4.50;;
70866;SDS011;58487;53.474;49.470;2023-04-25T12:40:57;10.77;;;4.40;;
70866;SDS011;58487;53.474;49.470;2023-04-25T12:43:23;13.70;;;4.70;;
70866;SDS011;58487;53.474;49.470;2023-04-25T12:45:50;12.93;;;5.40;;
70866;SDS011;58487;53.474;49.470;2023-04-25T12:48:18;9.90;;;5.10;;
70866;SDS011;58487;53.474;49.470;2023-04-25T12:50:45;12.02;;;4.95;;
70866;SDS011;58487;53.474;49.470;2023-04-25T12:53:18;12.23;;;5.30;;
70866;SDS011;58487;53.474;49.470;2023-04-25T12:55:46;12.90;;;5.85;;
70866;SDS011;58487;53.474;49.470;2023-04-25T12:58:16;13.30;;;6.10;;
70866;SDS011;58487;53.474;49.470;2023-04-25T13:00:43;11.43;;;6.10;;
70866;SDS011;58487;53.474;49.470;2023-04-25T13:03:10;15.73;;;6.05;;
70866;SDS011;58487;53.474;49.470;2023-04-25T13:05:37;13.70;;;6.80;;
70866;SDS011;58487;53.474;49.470;2023-04-25T13:08:04;16.98;;;6.53;;
70866;SDS011;58487;53.474;49.470;2023-04-25T13:10:31;12.48;;;6.63;;
70866;SDS011;58487;53.474;49.470;2023-04-25T13:12:59;12.57;;;6.00;;
70866;SDS011;58487;53.474;49.470;2023-04-25T13:15:26;13.30;;;6.60;;
70866;SDS011;58487;53.474;49.470;2023-04-25T13:17:52;13.23;;;6.17;;
70866;SDS011;58487;53.474;49.470;2023-04-25T13:20:18;15.38;;;7.15;;
70866;SDS011;58487;53.474;49.470;2023-04-25T13:22:47;15.25;;;7.07;;
70866;SDS011;58487;53.474;49.470;2023-04-25T13:25:13;14.27;;;6.75;;
70866;SDS011;58487;53.474;49.470;2023-04-25T13:27:40;16.40;;;6.70;;
70866;SDS011;58487;53.474;49.470;2023-04-25T13:30:07;15.67;;;6.50;;
70866;SDS011;58487;53.474;49.470;2023-04-25T13:32:33;15.57;;;6.95;;
70866;SDS011;58487;53.474;49.470;2023-04-25T13:35:02;12.20;;;6.82;;
70866;SDS011;58487;53.474;49.470;2023-04-25T13:37:29;18.25;;;6.95;;
70866;SDS011;58487;53.474;49.470;2023-04-25T13:39:55;12.15;;;7.32;;
70866;SDS011;58487;53.474;49.470;2023-04-25T13:42:22;14.13;;;7.43;;
70866;SDS011;58487;53.474;49.470;2023-04-25T13:44:50;13.20;;;7.05;;
70866;SDS011;58487;53.474;49.470;2023-04-25T13:47:16;14.40;;;7.15;;
70866;SDS011;58487;53.474;49.470;2023-04-25T13:49:42;15.65;;;7.50;;
70866;SDS011;58487;53.474;49.470;2023-04-25T13:52:09;18.73;;;8.13;;
70866;SDS011;58487;53.474;49.470;2023-04-25T13:54:35;20.10;;;8.00;;
70866;SDS011;58487;53.474;49.470;2023-04-25T13:57:01;15.73;;;6.85;;
70866;SDS011;58487;53.474;49.470;2023-04-25T13:59:27;14.63;;;6.70;;
70866;SDS011;58487;53.474;49.470;2023-04-25T14:01:54;12.73;;;6.57;;
70866;SDS011;58487;53.474;49.470;2023-04-25T14:04:20;15.85;;;7.82;;
70866;SDS011;58487;53.474;49.470;2023-04-25T14:06:46;17.80;;;7.73;;
70866;SDS011;58487;53.474;49.470;2023-04-25T14:09:13;14.52;;;7.70;;
70866;SDS011;58487;53.474;49.470;2023-04-25T14:11:39;15.10;;;7.15;;
70866;SDS011;58487;53.474;49.470;2023-04-25T14:14:05;17.85;;;7.50;;
70866;SDS011;58487;53.474;49.470;2023-04-25T14:16:31;10.50;;;6.65;;
70866;SDS011;58487;53.474;49.470;2023-04-25T14:18:58;15.37;;;7.03;;
70866;SDS011;58487;53.474;49.470;2023-04-25T14:21:24;16.40;;;7.00;;
70866;SDS011;58487;53.474;49.470;2023-04-25T14:23:51;18.00;;;7.35;;
70866;SDS011;58487;53.474;49.470;2023-04-25T14:26:17;16.00;;;6.68;;
70866;SDS011;58487;53.474;49.470;2023-04-25T14:28:43;18.95;;;6.80;;
70866;SDS011;58487;53.474;49.470;2023-04-25T14:31:09;14.97;;;6.33;;
70866;SDS011;58487;53.474;49.470;2023-04-25T14:33:36;17.67;;;7.25;;